Historical Weather Data
Okotoks
Hwy 2A and Milligan Dr

Date
ET inches
Rain inches
Temperature °C
Humidity
Avg
Wind kmh
Avg
Solar Wm2
Avg
High
Avg
Low
07/01/2021 0.33 0.00 34.9 25.1 12.7 37 11.0 345
07/02/2021 0.20 0.14 30.9 22.2 13.3 57 10.3 239
07/03/2021 0.22 0.05 27.6 19.0 10.4 66 7.6 322
07/04/2021 0.06 0.05 19.2 15.7 12.9 91 7.9 101
07/05/2021 0.06 0.04 17.4 14.1 12.3 88 5.4 98
07/06/2021 0.18 0.46 24.5 17.4 11.4 77 5.0 280
07/07/2021 0.15 0.37 26.4 18.0 10.5 77 5.6 224
07/08/2021 0.20 0.04 26.3 18.3 9.2 65 6.3 308
07/09/2021 0.22 0.00 28.2 19.5 10.2 62 4.7 323
07/10/2021 0.26 0.00 31.6 21.3 10.3 56 6.4 339
07/11/2021 0.14 0.05 22.6 16.8 10.9 69 8.2 209
07/12/2021 0.21 0.00 26.3 17.6 8.2 65 5.5 314
07/13/2021 0.22 0.00 27.8 19.5 10.0 61 6.9 302
07/14/2021 0.20 0.00 30.4 20.8 9.3 60 5.0 283
07/15/2021 0.22 0.00 29.5 20.9 11.6 55 7.7 278
07/16/2021 0.19 0.00 26.4 19.9 14.1 59 8.6 268
07/17/2021 0.20 0.00 23.6 17.0 10.9 72 9.6 317
07/18/2021 0.08 0.00 21.5 15.6 12.6 84 7.5 132
07/19/2021 0.14 0.00 24.5 17.3 12.2 82 9.1 210
07/20/2021 0.12 0.00 25.9 18.0 14.5 86 7.5 185
07/21/2021 0.17 0.00 26.9 19.2 13.8 66 10.3 199
07/22/2021 0.23 0.00 25.6 16.0 5.7 50 8.6 307
07/23/2021 0.22 0.00 26.9 15.4 3.0 49 7.8 302
07/24/2021 0.21 0.00 29.5 17.5 4.8 46 6.7 288
07/25/2021 0.19 0.00 27.8 18.0 6.9 55 5.8 276
07/26/2021 0.19 0.00 27.3 18.4 10.7 60 8.9 274
07/27/2021 0.16 0.00 24.7 17.1 9.6 70 8.4 233
07/28/2021 0.18 0.00 28.1 19.0 9.0 61 5.3 248
07/29/2021 0.19 0.00 28.4 20.3 11.8 62 7.5 241
07/30/2021 0.21 0.00 29.8 20.4 10.5 58 7.3 253
07/31/2021 0.19 0.00 31.7 20.8 10.2 57 6.1 228